Assinippi, Massachusetts
Current Conditions -  °F | °C
As of 3:52 AM on Saturday 25 Oct 2014 (Local Time) from KPYM Reporting Station
Broken Clouds Broken Clouds  
Wind Chill: 42°   Ceiling: 5500
Heat Index: 44°   Visibility: 10mi
Dew Point: 42°   Wind: 5mph
Humidity: 93%   Direction: 280°W
Pressure: 29.75"   Gusts: NA
Location:  42.1315°N, 70.8467°W
Report Text: KPYM 250752Z AUTO 28004KT 10SM BKN055 07/06 A2975 RMK AO2 SLP075 T00670056
Loading
Personal Weather Stations






























Interactive Weather Map
Tropical Storm Tracking
New forecast layout! Learn more

10-Day Weather Forecast

Advertisements
Track Severe Weather on mobile